EJA579 KSDL-KADS
Flight info
| Callsign | EJA579 |
|---|---|
| Flight time | 1h 40m |
| Altitude | 39000 |
| Route | FTHLS6 MAXXO TXO GREGS1 |
| Aircraft | C750/M-SBDE3FGHRWXY/S |
Departure
| Time | 2026-04-24 19:31 |
|---|---|
| Airport | Scottsdale Airport (KSDL) |
Arrival
| Time | 2026-04-24 21:11 |
|---|---|
| Airport | Addison Airport (KADS) |
| Time | Latitude | Longitude | Altitude | Speed | Heading |
|---|---|---|---|---|---|
| 2026-04-24 19:16 | 33.61932 | -111.91721 | 1500 ft | 0 kts | 314° |
| 2026-04-24 19:25 | 33.61940 | -111.91727 | 1499 ft | 4 kts | 336° |
| 2026-04-24 19:25 | 33.61962 | -111.91697 | 1499 ft | 6 kts | 102° |
| 2026-04-24 19:26 | 33.61946 | -111.91670 | 1501 ft | 3 kts | 130° |
| 2026-04-24 19:26 | 33.61925 | -111.91643 | 1503 ft | 6 kts | 134° |
| 2026-04-24 19:26 | 33.61919 | -111.91595 | 1505 ft | 10 kts | 43° |
| 2026-04-24 19:26 | 33.61985 | -111.91518 | 1504 ft | 14 kts | 44° |
| 2026-04-24 19:27 | 33.62060 | -111.91432 | 1502 ft | 17 kts | 44° |
| 2026-04-24 19:27 | 33.62156 | -111.91322 | 1502 ft | 19 kts | 44° |
| 2026-04-24 19:27 | 33.62245 | -111.91219 | 1503 ft | 17 kts | 44° |
| 2026-04-24 19:27 | 33.62331 | -111.91120 | 1503 ft | 17 kts | 44° |
| 2026-04-24 19:28 | 33.62415 | -111.91023 | 1506 ft | 16 kts | 45° |
| 2026-04-24 19:28 | 33.62496 | -111.90929 | 1506 ft | 17 kts | 44° |
| 2026-04-24 19:28 | 33.62589 | -111.90821 | 1507 ft | 21 kts | 44° |
| 2026-04-24 19:28 | 33.62701 | -111.90692 | 1504 ft | 23 kts | 44° |
| 2026-04-24 19:29 | 33.62930 | -111.90428 | 1501 ft | 22 kts | 44° |
| 2026-04-24 19:29 | 33.63036 | -111.90306 | 1503 ft | 20 kts | 44° |
| 2026-04-24 19:29 | 33.63123 | -111.90205 | 1503 ft | 15 kts | 44° |
| 2026-04-24 19:30 | 33.63139 | -111.90157 | 1504 ft | 4 kts | 133° |
| 2026-04-24 19:30 | 33.63095 | -111.90129 | 1504 ft | 8 kts | 181° |
| 2026-04-24 19:30 | 33.63078 | -111.90138 | 1504 ft | 0 kts | 223° |
| 2026-04-24 19:30 | 33.62837 | -111.90420 | 1503 ft | 106 kts | 224° |
| 2026-04-24 19:31 | 33.62166 | -111.91192 | 1747 ft | 147 kts | 223° |
| 2026-04-24 19:31 | 33.61354 | -111.92063 | 2415 ft | 162 kts | 220° |
| 2026-04-24 19:31 | 33.60453 | -111.93035 | 2848 ft | 186 kts | 221° |
| 2026-04-24 19:31 | 33.59396 | -111.94085 | 3196 ft | 213 kts | 210° |
| 2026-04-24 19:32 | 33.57832 | -111.94345 | 3345 ft | 251 kts | 172° |
| 2026-04-24 19:32 | 33.56294 | -111.93209 | 3828 ft | 273 kts | 131° |
| 2026-04-24 19:32 | 33.55603 | -111.91114 | 5040 ft | 272 kts | 105° |
| 2026-04-24 19:32 | 33.55344 | -111.88840 | 5991 ft | 278 kts | 97° |
| 2026-04-24 19:33 | 33.55234 | -111.86500 | 6899 ft | 284 kts | 93° |
| 2026-04-24 19:33 | 33.55194 | -111.84132 | 7780 ft | 292 kts | 92° |
| 2026-04-24 19:33 | 33.55130 | -111.81672 | 8782 ft | 297 kts | 94° |
| 2026-04-24 19:33 | 33.55038 | -111.79160 | 9696 ft | 306 kts | 94° |
| 2026-04-24 19:34 | 33.54947 | -111.76566 | 10381 ft | 318 kts | 93° |
| 2026-04-24 19:34 | 33.54861 | -111.73838 | 10613 ft | 345 kts | 93° |
| 2026-04-24 19:34 | 33.54765 | -111.70842 | 10740 ft | 372 kts | 93° |
| 2026-04-24 19:34 | 33.54660 | -111.67697 | 11397 ft | 378 kts | 93° |
| 2026-04-24 19:35 | 33.54553 | -111.64535 | 12120 ft | 383 kts | 93° |
| 2026-04-24 19:35 | 33.54444 | -111.61327 | 12767 ft | 388 kts | 93° |
| 2026-04-24 19:35 | 33.54334 | -111.58065 | 13438 ft | 394 kts | 93° |
| 2026-04-24 19:35 | 33.54223 | -111.54759 | 14042 ft | 399 kts | 93° |
| 2026-04-24 19:36 | 33.54107 | -111.51408 | 14685 ft | 403 kts | 93° |
| 2026-04-24 19:36 | 33.53988 | -111.48038 | 15313 ft | 406 kts | 93° |
| 2026-04-24 19:36 | 33.53870 | -111.44684 | 15916 ft | 410 kts | 93° |
| 2026-04-24 19:36 | 33.53749 | -111.41271 | 16525 ft | 415 kts | 93° |
| 2026-04-24 19:37 | 33.53627 | -111.37792 | 17204 ft | 420 kts | 93° |
| 2026-04-24 19:37 | 33.53500 | -111.34273 | 17891 ft | 424 kts | 93° |
| 2026-04-24 19:37 | 33.53371 | -111.30719 | 18509 ft | 429 kts | 93° |
| 2026-04-24 19:37 | 33.53239 | -111.27120 | 19109 ft | 434 kts | 94° |
| 2026-04-24 19:38 | 33.53180 | -111.23477 | 19634 ft | 442 kts | 87° |
| 2026-04-24 19:38 | 33.53696 | -111.19830 | 20266 ft | 446 kts | 75° |
| 2026-04-24 19:38 | 33.54661 | -111.16267 | 20879 ft | 451 kts | 70° |
| 2026-04-24 19:38 | 33.55681 | -111.12687 | 21505 ft | 457 kts | 70° |
| 2026-04-24 19:39 | 33.56690 | -111.09089 | 22047 ft | 463 kts | 70° |
| 2026-04-24 19:39 | 33.57712 | -111.05404 | 22655 ft | 469 kts | 70° |
| 2026-04-24 19:39 | 33.58756 | -111.01669 | 23225 ft | 475 kts | 70° |
| 2026-04-24 19:39 | 33.59821 | -110.97883 | 23748 ft | 480 kts | 70° |
| 2026-04-24 19:40 | 33.60888 | -110.94061 | 24279 ft | 484 kts | 70° |
| 2026-04-24 19:40 | 33.61957 | -110.90211 | 24797 ft | 488 kts | 70° |
| 2026-04-24 19:40 | 33.63035 | -110.86333 | 25311 ft | 492 kts | 70° |
| 2026-04-24 19:40 | 33.64112 | -110.82463 | 25830 ft | 496 kts | 70° |
| 2026-04-24 19:41 | 33.65210 | -110.78505 | 26353 ft | 499 kts | 70° |
| 2026-04-24 19:41 | 33.66310 | -110.74531 | 26867 ft | 503 kts | 70° |
| 2026-04-24 19:41 | 33.67045 | -110.71876 | 27169 ft | 506 kts | 70° |
| 2026-04-24 19:41 | 33.68539 | -110.66476 | 27869 ft | 511 kts | 70° |
| 2026-04-24 19:42 | 33.69647 | -110.62456 | 28372 ft | 515 kts | 70° |
| 2026-04-24 19:42 | 33.70775 | -110.58360 | 28882 ft | 519 kts | 70° |
| 2026-04-24 19:42 | 33.71910 | -110.54234 | 29394 ft | 522 kts | 70° |
| 2026-04-24 19:42 | 33.72668 | -110.51477 | 29678 ft | 525 kts | 70° |
| 2026-04-24 19:43 | 33.73818 | -110.47285 | 30104 ft | 529 kts | 70° |
| 2026-04-24 19:43 | 33.74972 | -110.43074 | 30543 ft | 532 kts | 70° |
| 2026-04-24 19:43 | 33.76133 | -110.38832 | 30924 ft | 535 kts | 70° |
| 2026-04-24 19:43 | 33.77294 | -110.34582 | 31542 ft | 533 kts | 70° |
| 2026-04-24 19:44 | 33.78449 | -110.30345 | 32119 ft | 533 kts | 70° |
| 2026-04-24 19:44 | 33.79605 | -110.26107 | 32677 ft | 533 kts | 70° |
| 2026-04-24 19:44 | 33.80762 | -110.21863 | 33224 ft | 534 kts | 70° |
| 2026-04-24 19:44 | 33.81900 | -110.17677 | 33776 ft | 534 kts | 70° |
| 2026-04-24 19:45 | 33.83053 | -110.13423 | 34315 ft | 534 kts | 70° |
| 2026-04-24 19:45 | 33.84209 | -110.09156 | 34792 ft | 535 kts | 69° |
| 2026-04-24 19:45 | 33.85362 | -110.04895 | 35280 ft | 536 kts | 69° |
| 2026-04-24 19:45 | 33.86515 | -110.00633 | 35795 ft | 536 kts | 69° |
| 2026-04-24 19:46 | 33.87664 | -109.96371 | 36307 ft | 536 kts | 69° |
| 2026-04-24 19:46 | 33.88813 | -109.92104 | 36818 ft | 536 kts | 69° |
| 2026-04-24 19:46 | 33.89963 | -109.87828 | 37336 ft | 536 kts | 69° |
| 2026-04-24 19:46 | 33.91111 | -109.83554 | 37875 ft | 537 kts | 69° |
| 2026-04-24 19:47 | 33.92259 | -109.79269 | 38401 ft | 537 kts | 69° |
| 2026-04-24 19:47 | 33.93401 | -109.74998 | 38850 ft | 536 kts | 69° |
| 2026-04-24 19:47 | 33.94556 | -109.70689 | 38881 ft | 547 kts | 69° |
| 2026-04-24 19:47 | 33.95720 | -109.66339 | 38895 ft | 558 kts | 69° |
| 2026-04-24 19:48 | 33.96917 | -109.61836 | 38921 ft | 568 kts | 69° |
| 2026-04-24 19:48 | 34.00614 | -109.47904 | 39001 ft | 591 kts | 69° |
| 2026-04-24 19:49 | 34.05653 | -109.28800 | 39068 ft | 601 kts | 69° |
| 2026-04-24 19:50 | 34.10698 | -109.09550 | 38988 ft | 601 kts | 70° |
| 2026-04-24 19:51 | 34.14462 | -108.95112 | 38881 ft | 601 kts | 70° |
| 2026-04-24 19:52 | 34.18201 | -108.80686 | 38825 ft | 601 kts | 70° |
| 2026-04-24 19:52 | 34.20690 | -108.71025 | 38822 ft | 601 kts | 70° |
| 2026-04-24 19:53 | 34.23163 | -108.61408 | 38832 ft | 605 kts | 70° |
| 2026-04-24 19:54 | 34.26893 | -108.46828 | 38840 ft | 605 kts | 70° |
| 2026-04-24 19:54 | 34.29369 | -108.37100 | 38843 ft | 604 kts | 70° |
| 2026-04-24 19:55 | 34.31421 | -108.29018 | 38841 ft | 604 kts | 70° |
| 2026-04-24 19:55 | 34.34279 | -108.17708 | 38842 ft | 604 kts | 70° |
| 2026-04-24 19:56 | 34.36731 | -108.07981 | 38844 ft | 604 kts | 70° |
| 2026-04-24 19:56 | 34.38558 | -107.98094 | 38829 ft | 608 kts | 83° |
| 2026-04-24 19:57 | 34.38726 | -107.87858 | 38844 ft | 608 kts | 92° |
| 2026-04-24 19:57 | 34.38590 | -107.77640 | 38849 ft | 607 kts | 88° |
| 2026-04-24 19:58 | 34.38907 | -107.67415 | 38846 ft | 608 kts | 89° |
| 2026-04-24 19:58 | 34.38840 | -107.57168 | 38843 ft | 607 kts | 89° |
| 2026-04-24 19:59 | 34.39050 | -107.46934 | 38840 ft | 608 kts | 89° |
| 2026-04-24 19:59 | 34.39047 | -107.36765 | 38833 ft | 609 kts | 90° |
| 2026-04-24 20:00 | 34.39174 | -107.26505 | 38828 ft | 609 kts | 89° |
| 2026-04-24 20:00 | 34.39206 | -107.16237 | 38822 ft | 610 kts | 90° |
| 2026-04-24 20:01 | 34.39275 | -107.05954 | 38820 ft | 609 kts | 89° |
| 2026-04-24 20:01 | 34.39320 | -106.95704 | 38813 ft | 608 kts | 90° |
| 2026-04-24 20:02 | 34.39342 | -106.87189 | 38816 ft | 609 kts | 89° |
| 2026-04-24 20:02 | 34.39392 | -106.75202 | 38833 ft | 609 kts | 89° |
| 2026-04-24 20:03 | 34.39564 | -106.65009 | 38819 ft | 607 kts | 86° |
| 2026-04-24 20:03 | 34.40035 | -106.54828 | 38843 ft | 606 kts | 86° |
| 2026-04-24 20:04 | 34.40408 | -106.44673 | 38856 ft | 606 kts | 86° |
| 2026-04-24 20:04 | 34.40836 | -106.34460 | 38868 ft | 606 kts | 86° |
| 2026-04-24 20:05 | 34.41215 | -106.24277 | 38866 ft | 604 kts | 87° |
| 2026-04-24 20:05 | 34.41607 | -106.14104 | 38878 ft | 604 kts | 87° |
| 2026-04-24 20:06 | 34.41982 | -106.03895 | 38877 ft | 606 kts | 87° |
| 2026-04-24 20:06 | 34.42352 | -105.93690 | 38887 ft | 608 kts | 87° |
| 2026-04-24 20:07 | 34.42656 | -105.85186 | 38890 ft | 608 kts | 87° |
| 2026-04-24 20:07 | 34.43063 | -105.73291 | 38879 ft | 608 kts | 87° |
| 2026-04-24 20:08 | 34.43410 | -105.63060 | 38879 ft | 608 kts | 87° |
| 2026-04-24 20:08 | 34.43744 | -105.52810 | 38868 ft | 609 kts | 87° |
| 2026-04-24 20:09 | 34.44076 | -105.42540 | 38853 ft | 609 kts | 87° |
| 2026-04-24 20:09 | 34.44391 | -105.32339 | 38833 ft | 609 kts | 87° |
| 2026-04-24 20:10 | 34.44705 | -105.22074 | 38831 ft | 608 kts | 88° |
| 2026-04-24 20:10 | 34.45005 | -105.11827 | 38807 ft | 608 kts | 88° |
| 2026-04-24 20:11 | 34.45298 | -105.01661 | 38791 ft | 607 kts | 88° |
| 2026-04-24 20:11 | 34.45583 | -104.91400 | 38771 ft | 607 kts | 88° |
| 2026-04-24 20:12 | 34.45860 | -104.81175 | 38765 ft | 606 kts | 88° |
| 2026-04-24 20:12 | 34.46126 | -104.70962 | 38765 ft | 606 kts | 88° |
| 2026-04-24 20:13 | 34.46384 | -104.60802 | 38750 ft | 607 kts | 88° |
| 2026-04-24 20:13 | 34.46633 | -104.50577 | 38748 ft | 606 kts | 88° |
| 2026-04-24 20:14 | 34.46876 | -104.40356 | 38735 ft | 607 kts | 88° |
| 2026-04-24 20:14 | 34.47109 | -104.30137 | 38726 ft | 606 kts | 88° |
| 2026-04-24 20:15 | 34.47334 | -104.19922 | 38715 ft | 606 kts | 88° |
| 2026-04-24 20:15 | 34.47549 | -104.09766 | 38713 ft | 606 kts | 88° |
| 2026-04-24 20:16 | 34.47757 | -103.99546 | 38702 ft | 606 kts | 88° |
| 2026-04-24 20:16 | 34.47956 | -103.89315 | 38704 ft | 606 kts | 88° |
| 2026-04-24 20:17 | 34.48147 | -103.79098 | 38713 ft | 605 kts | 88° |
| 2026-04-24 20:17 | 34.48416 | -103.63790 | 38739 ft | 605 kts | 88° |
| 2026-04-24 20:18 | 34.48585 | -103.53649 | 38717 ft | 605 kts | 89° |
| 2026-04-24 20:18 | 34.48746 | -103.43453 | 38742 ft | 605 kts | 89° |
| 2026-04-24 20:19 | 34.48899 | -103.33233 | 38769 ft | 606 kts | 89° |
| 2026-04-24 20:19 | 34.49042 | -103.23009 | 38770 ft | 605 kts | 89° |
| 2026-04-24 20:20 | 34.49177 | -103.12851 | 38830 ft | 605 kts | 89° |
| 2026-04-24 20:20 | 34.49304 | -103.02627 | 38835 ft | 605 kts | 89° |
| 2026-04-24 20:21 | 34.49423 | -102.92418 | 38829 ft | 605 kts | 89° |
| 2026-04-24 20:21 | 34.49379 | -102.82271 | 38800 ft | 605 kts | 95° |
| 2026-04-24 20:22 | 34.48290 | -102.72156 | 38817 ft | 605 kts | 99° |
| 2026-04-24 20:22 | 34.47261 | -102.62009 | 38808 ft | 605 kts | 97° |
| 2026-04-24 20:23 | 34.46225 | -102.51945 | 38809 ft | 605 kts | 99° |
| 2026-04-24 20:23 | 34.45139 | -102.41826 | 38804 ft | 605 kts | 97° |
| 2026-04-24 20:24 | 34.44100 | -102.31694 | 38794 ft | 606 kts | 98° |
| 2026-04-24 20:24 | 34.42989 | -102.21578 | 38795 ft | 606 kts | 98° |
| 2026-04-24 20:25 | 34.41929 | -102.11419 | 38784 ft | 606 kts | 98° |
| 2026-04-24 20:25 | 34.40809 | -102.01296 | 38786 ft | 606 kts | 98° |
| 2026-04-24 20:26 | 34.39730 | -101.91237 | 38808 ft | 606 kts | 98° |
| 2026-04-24 20:26 | 34.38603 | -101.81110 | 38823 ft | 606 kts | 98° |
| 2026-04-24 20:27 | 34.37491 | -101.70979 | 38829 ft | 606 kts | 98° |
| 2026-04-24 20:27 | 34.36356 | -101.60859 | 38833 ft | 605 kts | 98° |
| 2026-04-24 20:28 | 34.35229 | -101.50822 | 38813 ft | 605 kts | 98° |
| 2026-04-24 20:28 | 34.34082 | -101.40707 | 38790 ft | 605 kts | 98° |
| 2026-04-24 20:29 | 34.32930 | -101.30611 | 38774 ft | 605 kts | 98° |
| 2026-04-24 20:29 | 34.31769 | -101.20523 | 38773 ft | 605 kts | 98° |
| 2026-04-24 20:30 | 34.30601 | -101.10442 | 38770 ft | 605 kts | 98° |
| 2026-04-24 20:30 | 34.29623 | -101.02057 | 38770 ft | 606 kts | 99° |
| 2026-04-24 20:31 | 34.28439 | -100.91965 | 38773 ft | 606 kts | 99° |
| 2026-04-24 20:31 | 34.27248 | -100.81885 | 38771 ft | 605 kts | 99° |
| 2026-04-24 20:32 | 34.26048 | -100.71803 | 38750 ft | 605 kts | 99° |
| 2026-04-24 20:32 | 34.24839 | -100.61721 | 38766 ft | 606 kts | 99° |
| 2026-04-24 20:33 | 34.23621 | -100.51640 | 38761 ft | 605 kts | 99° |
| 2026-04-24 20:33 | 34.22407 | -100.41639 | 38759 ft | 605 kts | 99° |
| 2026-04-24 20:34 | 34.21172 | -100.31568 | 38761 ft | 605 kts | 99° |
| 2026-04-24 20:34 | 34.19511 | -100.21620 | 38787 ft | 603 kts | 108° |
| 2026-04-24 20:35 | 34.16827 | -100.12048 | 38777 ft | 600 kts | 111° |
| 2026-04-24 20:35 | 34.14375 | -100.02401 | 38763 ft | 601 kts | 108° |
| 2026-04-24 20:36 | 34.11772 | -99.92796 | 38753 ft | 601 kts | 111° |
| 2026-04-24 20:36 | 34.09246 | -99.83234 | 38746 ft | 601 kts | 109° |
| 2026-04-24 20:37 | 34.06685 | -99.73646 | 38737 ft | 599 kts | 110° |
| 2026-04-24 20:37 | 34.04102 | -99.64071 | 38729 ft | 599 kts | 109° |
| 2026-04-24 20:38 | 34.01559 | -99.54548 | 38733 ft | 599 kts | 110° |
| 2026-04-24 20:38 | 33.98959 | -99.44996 | 38726 ft | 599 kts | 110° |
| 2026-04-24 20:39 | 33.96391 | -99.35454 | 38722 ft | 598 kts | 110° |
| 2026-04-24 20:39 | 33.93808 | -99.26010 | 38717 ft | 588 kts | 110° |
| 2026-04-24 20:40 | 33.91267 | -99.16665 | 38715 ft | 587 kts | 110° |
| 2026-04-24 20:40 | 33.88699 | -99.07310 | 38720 ft | 587 kts | 110° |
| 2026-04-24 20:41 | 33.87428 | -99.02664 | 38440 ft | 575 kts | 110° |
| 2026-04-24 20:41 | 33.86188 | -98.98140 | 37600 ft | 560 kts | 110° |
| 2026-04-24 20:41 | 33.84979 | -98.93754 | 36881 ft | 544 kts | 110° |
| 2026-04-24 20:41 | 33.83814 | -98.89544 | 36196 ft | 532 kts | 110° |
| 2026-04-24 20:42 | 33.82647 | -98.85327 | 35510 ft | 528 kts | 110° |
| 2026-04-24 20:42 | 33.81484 | -98.81120 | 34828 ft | 532 kts | 110° |
| 2026-04-24 20:42 | 33.80306 | -98.76872 | 34127 ft | 536 kts | 110° |
| 2026-04-24 20:42 | 33.79122 | -98.72602 | 33403 ft | 539 kts | 110° |
| 2026-04-24 20:43 | 33.77937 | -98.68334 | 32693 ft | 536 kts | 110° |
| 2026-04-24 20:43 | 33.76759 | -98.64104 | 31994 ft | 533 kts | 110° |
| 2026-04-24 20:43 | 33.75598 | -98.59941 | 31304 ft | 531 kts | 110° |
| 2026-04-24 20:43 | 33.74424 | -98.55734 | 30561 ft | 529 kts | 110° |
| 2026-04-24 20:44 | 33.73252 | -98.51542 | 29859 ft | 526 kts | 110° |
| 2026-04-24 20:44 | 33.72097 | -98.47414 | 29122 ft | 516 kts | 110° |
| 2026-04-24 20:44 | 33.70953 | -98.43337 | 28443 ft | 511 kts | 110° |
| 2026-04-24 20:44 | 33.69834 | -98.39356 | 27779 ft | 505 kts | 110° |
| 2026-04-24 20:45 | 33.68715 | -98.35370 | 27109 ft | 499 kts | 110° |
| 2026-04-24 20:45 | 33.67610 | -98.31444 | 26462 ft | 492 kts | 110° |
| 2026-04-24 20:45 | 33.66518 | -98.27575 | 25820 ft | 487 kts | 110° |
| 2026-04-24 20:45 | 33.65430 | -98.23735 | 25182 ft | 482 kts | 110° |
| 2026-04-24 20:46 | 33.64356 | -98.19933 | 24546 ft | 477 kts | 110° |
| 2026-04-24 20:46 | 33.63312 | -98.16236 | 23932 ft | 471 kts | 111° |
| 2026-04-24 20:46 | 33.62246 | -98.12477 | 23301 ft | 466 kts | 111° |
| 2026-04-24 20:46 | 33.61220 | -98.08867 | 22653 ft | 461 kts | 111° |
| 2026-04-24 20:47 | 33.60189 | -98.05241 | 22046 ft | 458 kts | 111° |
| 2026-04-24 20:47 | 33.59165 | -98.01641 | 21453 ft | 454 kts | 111° |
| 2026-04-24 20:47 | 33.58147 | -97.98072 | 20855 ft | 451 kts | 111° |
| 2026-04-24 20:47 | 33.57139 | -97.94535 | 20266 ft | 445 kts | 111° |
| 2026-04-24 20:48 | 33.56140 | -97.91036 | 19683 ft | 441 kts | 111° |
| 2026-04-24 20:48 | 33.55147 | -97.87570 | 19106 ft | 438 kts | 111° |
| 2026-04-24 20:48 | 33.54160 | -97.84125 | 18526 ft | 434 kts | 111° |
| 2026-04-24 20:48 | 33.53257 | -97.80682 | 17943 ft | 432 kts | 107° |
| 2026-04-24 20:49 | 33.52456 | -97.77233 | 17551 ft | 428 kts | 108° |
| 2026-04-24 20:49 | 33.51600 | -97.73800 | 17017 ft | 426 kts | 108° |
| 2026-04-24 20:49 | 33.50767 | -97.70402 | 16457 ft | 423 kts | 108° |
| 2026-04-24 20:49 | 33.49983 | -97.67057 | 15918 ft | 419 kts | 107° |
| 2026-04-24 20:50 | 33.49200 | -97.63733 | 15363 ft | 405 kts | 108° |
| 2026-04-24 20:50 | 33.48434 | -97.60570 | 14848 ft | 383 kts | 108° |
| 2026-04-24 20:50 | 33.47704 | -97.57574 | 14346 ft | 366 kts | 108° |
| 2026-04-24 20:50 | 33.47014 | -97.54707 | 13884 ft | 351 kts | 108° |
| 2026-04-24 20:51 | 33.46348 | -97.51929 | 13414 ft | 344 kts | 108° |
| 2026-04-24 20:51 | 33.45690 | -97.49203 | 12939 ft | 338 kts | 108° |
| 2026-04-24 20:51 | 33.44973 | -97.46555 | 12468 ft | 331 kts | 115° |
| 2026-04-24 20:51 | 33.43792 | -97.44224 | 12057 ft | 325 kts | 127° |
| 2026-04-24 20:52 | 33.42525 | -97.41988 | 11644 ft | 324 kts | 127° |
| 2026-04-24 20:52 | 33.41286 | -97.39750 | 11223 ft | 322 kts | 126° |
| 2026-04-24 20:52 | 33.40090 | -97.37540 | 10805 ft | 319 kts | 126° |
| 2026-04-24 20:52 | 33.38883 | -97.35329 | 10385 ft | 315 kts | 127° |
| 2026-04-24 20:53 | 33.37677 | -97.33145 | 9969 ft | 312 kts | 127° |
| 2026-04-24 20:53 | 33.36488 | -97.30984 | 9554 ft | 309 kts | 127° |
| 2026-04-24 20:53 | 33.35313 | -97.28847 | 9129 ft | 306 kts | 126° |
| 2026-04-24 20:53 | 33.34142 | -97.26721 | 8726 ft | 306 kts | 126° |
| 2026-04-24 20:54 | 33.32974 | -97.24602 | 8324 ft | 304 kts | 126° |
| 2026-04-24 20:54 | 33.31813 | -97.22490 | 7925 ft | 303 kts | 126° |
| 2026-04-24 20:54 | 33.30654 | -97.20390 | 7527 ft | 302 kts | 126° |
| 2026-04-24 20:54 | 33.29496 | -97.18296 | 7131 ft | 300 kts | 126° |
| 2026-04-24 20:55 | 33.28349 | -97.16216 | 6736 ft | 299 kts | 125° |
| 2026-04-24 20:55 | 33.27208 | -97.14147 | 6346 ft | 297 kts | 125° |
| 2026-04-24 20:55 | 33.26084 | -97.12117 | 5945 ft | 296 kts | 125° |
| 2026-04-24 20:55 | 33.24953 | -97.10071 | 5544 ft | 294 kts | 125° |
| 2026-04-24 20:56 | 33.23829 | -97.08041 | 5156 ft | 292 kts | 124° |
| 2026-04-24 20:56 | 33.22712 | -97.06024 | 4780 ft | 288 kts | 124° |
| 2026-04-24 20:56 | 33.21635 | -97.04069 | 4400 ft | 276 kts | 124° |
| 2026-04-24 20:56 | 33.20607 | -97.02185 | 4033 ft | 266 kts | 124° |
| 2026-04-24 20:57 | 33.19616 | -97.00362 | 3675 ft | 257 kts | 124° |
| 2026-04-24 20:57 | 33.18660 | -96.98607 | 3328 ft | 245 kts | 124° |
| 2026-04-24 20:57 | 33.17749 | -96.96933 | 3003 ft | 235 kts | 124° |
| 2026-04-24 20:57 | 33.16866 | -96.95316 | 2701 ft | 231 kts | 126° |
| 2026-04-24 20:58 | 33.16012 | -96.93749 | 2407 ft | 223 kts | 126° |
| 2026-04-24 20:58 | 33.15129 | -96.92268 | 2066 ft | 216 kts | 137° |
| 2026-04-24 20:58 | 33.13952 | -96.91238 | 1947 ft | 200 kts | 154° |
| 2026-04-24 20:58 | 33.12689 | -96.90606 | 1951 ft | 194 kts | 164° |
| 2026-04-24 20:59 | 33.11438 | -96.90062 | 1954 ft | 189 kts | 164° |
| 2026-04-24 20:59 | 33.10207 | -96.89522 | 1954 ft | 186 kts | 164° |
| 2026-04-24 20:59 | 33.08969 | -96.88978 | 1972 ft | 190 kts | 163° |
| 2026-04-24 20:59 | 33.07771 | -96.88445 | 1952 ft | 179 kts | 165° |
| 2026-04-24 21:00 | 33.06669 | -96.87952 | 1926 ft | 157 kts | 163° |
| 2026-04-24 21:00 | 33.05654 | -96.87500 | 1939 ft | 160 kts | 164° |
| 2026-04-24 21:00 | 33.04622 | -96.87049 | 1960 ft | 145 kts | 165° |
| 2026-04-24 21:00 | 33.03746 | -96.86660 | 1935 ft | 128 kts | 167° |
| 2026-04-24 21:01 | 33.02872 | -96.86279 | 1762 ft | 135 kts | 165° |
| 2026-04-24 21:01 | 33.02008 | -96.85896 | 1617 ft | 132 kts | 163° |
| 2026-04-24 21:01 | 33.01156 | -96.85506 | 1459 ft | 130 kts | 163° |
| 2026-04-24 21:01 | 33.00303 | -96.85147 | 1292 ft | 130 kts | 163° |
| 2026-04-24 21:02 | 32.99463 | -96.84780 | 1121 ft | 127 kts | 164° |
| 2026-04-24 21:02 | 32.98633 | -96.84423 | 920 ft | 125 kts | 162° |
| 2026-04-24 21:02 | 32.97837 | -96.84075 | 720 ft | 118 kts | 162° |
| 2026-04-24 21:02 | 32.97103 | -96.83753 | 647 ft | 102 kts | 163° |
| 2026-04-24 21:03 | 32.96375 | -96.83466 | 744 ft | 131 kts | 159° |
| 2026-04-24 21:03 | 32.95469 | -96.83075 | 1306 ft | 149 kts | 164° |
| 2026-04-24 21:03 | 32.94436 | -96.82616 | 1545 ft | 164 kts | 165° |
| 2026-04-24 21:03 | 32.93360 | -96.82139 | 1918 ft | 170 kts | 166° |
| 2026-04-24 21:04 | 32.92109 | -96.81619 | 2094 ft | 211 kts | 163° |
| 2026-04-24 21:04 | 32.90989 | -96.80443 | 1930 ft | 229 kts | 120° |
| 2026-04-24 21:04 | 32.90815 | -96.78572 | 1930 ft | 235 kts | 77° |
| 2026-04-24 21:04 | 32.91730 | -96.76990 | 1960 ft | 236 kts | 34° |
| 2026-04-24 21:05 | 32.93269 | -96.76394 | 1997 ft | 232 kts | 0° |
| 2026-04-24 21:05 | 32.94832 | -96.76678 | 2023 ft | 227 kts | 340° |
| 2026-04-24 21:05 | 32.96328 | -96.77252 | 2015 ft | 223 kts | 337° |
| 2026-04-24 21:05 | 32.97688 | -96.77757 | 1973 ft | 185 kts | 339° |
| 2026-04-24 21:06 | 32.98897 | -96.78191 | 1979 ft | 178 kts | 338° |
| 2026-04-24 21:06 | 33.00061 | -96.78617 | 1982 ft | 170 kts | 336° |
| 2026-04-24 21:06 | 33.01138 | -96.78972 | 1994 ft | 157 kts | 339° |
| 2026-04-24 21:06 | 33.02164 | -96.79348 | 1991 ft | 155 kts | 338° |
| 2026-04-24 21:07 | 33.03203 | -96.79733 | 1988 ft | 158 kts | 338° |
| 2026-04-24 21:07 | 33.04239 | -96.80113 | 1995 ft | 154 kts | 338° |
| 2026-04-24 21:07 | 33.05290 | -96.80509 | 1990 ft | 157 kts | 337° |
| 2026-04-24 21:07 | 33.06252 | -96.81063 | 1904 ft | 149 kts | 309° |
| 2026-04-24 21:08 | 33.06417 | -96.82160 | 1830 ft | 128 kts | 255° |
| 2026-04-24 21:08 | 33.06144 | -96.83118 | 1958 ft | 120 kts | 253° |
| 2026-04-24 21:08 | 33.05934 | -96.84100 | 1987 ft | 126 kts | 255° |
| 2026-04-24 21:08 | 33.05709 | -96.85113 | 1974 ft | 125 kts | 253° |
| 2026-04-24 21:09 | 33.05141 | -96.85873 | 1949 ft | 126 kts | 220° |
| 2026-04-24 21:09 | 33.04433 | -96.86544 | 2003 ft | 131 kts | 222° |
| 2026-04-24 21:09 | 33.03604 | -96.86864 | 1757 ft | 137 kts | 172° |
| 2026-04-24 21:09 | 33.02802 | -96.86261 | 1555 ft | 130 kts | 159° |
| 2026-04-24 21:10 | 33.01979 | -96.85908 | 1527 ft | 124 kts | 161° |
| 2026-04-24 21:10 | 33.01149 | -96.85523 | 1426 ft | 131 kts | 164° |
| 2026-04-24 21:10 | 33.00294 | -96.85144 | 1267 ft | 132 kts | 163° |
| 2026-04-24 21:10 | 32.99449 | -96.84770 | 1111 ft | 130 kts | 164° |
| 2026-04-24 21:11 | 32.98607 | -96.84408 | 923 ft | 125 kts | 162° |
| 2026-04-24 21:11 | 32.97808 | -96.84062 | 728 ft | 120 kts | 161° |
| 2026-04-24 21:11 | 32.97070 | -96.83743 | 643 ft | 102 kts | 159° |
| 2026-04-24 21:11 | 32.96604 | -96.83535 | 638 ft | 41 kts | 160° |
| 2026-04-24 21:12 | 32.96476 | -96.83465 | 637 ft | 11 kts | 111° |
| 2026-04-24 21:12 | 32.96486 | -96.83410 | 638 ft | 10 kts | 69° |
| 2026-04-24 21:12 | 32.96440 | -96.83360 | 639 ft | 10 kts | 159° |
| 2026-04-24 21:12 | 32.96349 | -96.83321 | 640 ft | 15 kts | 160° |
| 2026-04-24 21:13 | 32.96261 | -96.83274 | 640 ft | 11 kts | 135° |
| 2026-04-24 21:13 | 32.96251 | -96.83199 | 640 ft | 7 kts | 113° |
| 2026-04-24 21:13 | 32.96240 | -96.83192 | 640 ft | 0 kts | 165° |